sensor_id;sensor_type;location;lat;lon;timestamp;P1;durP1;ratioP1;P2;durP2;ratioP2
71637;SDS011;59485;43.542;-5.676;2023-08-31T00:01:46;10.20;;;3.20;;
71637;SDS011;59485;43.542;-5.676;2023-08-31T00:04:13;12.00;;;3.38;;
71637;SDS011;59485;43.542;-5.676;2023-08-31T00:06:40;11.27;;;3.05;;
71637;SDS011;59485;43.542;-5.676;2023-08-31T00:09:06;8.55;;;2.58;;
71637;SDS011;59485;43.542;-5.676;2023-08-31T00:11:37;9.37;;;2.97;;
71637;SDS011;59485;43.542;-5.676;2023-08-31T00:14:03;11.98;;;3.17;;
71637;SDS011;59485;43.542;-5.676;2023-08-31T00:16:29;9.88;;;3.40;;
71637;SDS011;59485;43.542;-5.676;2023-08-31T00:18:55;9.13;;;2.20;;
71637;SDS011;59485;43.542;-5.676;2023-08-31T00:21:22;11.85;;;2.92;;
71637;SDS011;59485;43.542;-5.676;2023-08-31T00:23:47;11.27;;;3.67;;
71637;SDS011;59485;43.542;-5.676;2023-08-31T00:26:13;10.83;;;3.37;;
71637;SDS011;59485;43.542;-5.676;2023-08-31T00:28:40;11.80;;;3.10;;
71637;SDS011;59485;43.542;-5.676;2023-08-31T00:31:08;8.73;;;2.53;;
71637;SDS011;59485;43.542;-5.676;2023-08-31T00:33:39;8.60;;;2.53;;
71637;SDS011;59485;43.542;-5.676;2023-08-31T00:36:05;10.18;;;2.83;;
71637;SDS011;59485;43.542;-5.676;2023-08-31T00:38:31;11.37;;;2.90;;
71637;SDS011;59485;43.542;-5.676;2023-08-31T00:40:56;8.35;;;3.38;;
71637;SDS011;59485;43.542;-5.676;2023-08-31T00:43:22;12.17;;;2.57;;
71637;SDS011;59485;43.542;-5.676;2023-08-31T00:45:51;9.88;;;3.22;;
71637;SDS011;59485;43.542;-5.676;2023-08-31T00:48:24;12.03;;;2.40;;
71637;SDS011;59485;43.542;-5.676;2023-08-31T00:50:49;11.55;;;3.13;;
71637;SDS011;59485;43.542;-5.676;2023-08-31T00:53:16;7.13;;;2.38;;
71637;SDS011;59485;43.542;-5.676;2023-08-31T00:55:45;7.25;;;2.55;;
71637;SDS011;59485;43.542;-5.676;2023-08-31T00:58:11;9.63;;;3.15;;
71637;SDS011;59485;43.542;-5.676;2023-08-31T01:00:58;9.63;;;3.27;;
71637;SDS011;59485;43.542;-5.676;2023-08-31T01:10:02;10.17;;;3.10;;
71637;SDS011;59485;43.542;-5.676;2023-08-31T01:12:11;9.43;;;2.53;;
71637;SDS011;59485;43.542;-5.676;2023-08-31T01:14:56;7.47;;;2.47;;
71637;SDS011;59485;43.542;-5.676;2023-08-31T01:17:28;21.50;;;4.10;;
71637;SDS011;59485;43.542;-5.676;2023-08-31T01:19:57;7.80;;;2.78;;
71637;SDS011;59485;43.542;-5.676;2023-08-31T01:22:31;8.60;;;2.77;;
71637;SDS011;59485;43.542;-5.676;2023-08-31T01:25:05;11.30;;;3.28;;
71637;SDS011;59485;43.542;-5.676;2023-08-31T01:27:34;10.95;;;3.10;;
71637;SDS011;59485;43.542;-5.676;2023-08-31T01:30:01;9.30;;;3.20;;
71637;SDS011;59485;43.542;-5.676;2023-08-31T01:32:29;13.43;;;3.13;;
71637;SDS011;59485;43.542;-5.676;2023-08-31T01:34:54;11.90;;;3.63;;
71637;SDS011;59485;43.542;-5.676;2023-08-31T01:40:18;12.30;;;2.90;;
71637;SDS011;59485;43.542;-5.676;2023-08-31T01:42:48;10.43;;;2.97;;
71637;SDS011;59485;43.542;-5.676;2023-08-31T01:45:18;13.03;;;3.03;;
71637;SDS011;59485;43.542;-5.676;2023-08-31T01:47:45;10.85;;;2.85;;
71637;SDS011;59485;43.542;-5.676;2023-08-31T01:50:12;7.65;;;2.53;;
71637;SDS011;59485;43.542;-5.676;2023-08-31T01:52:37;9.07;;;2.72;;
71637;SDS011;59485;43.542;-5.676;2023-08-31T01:55:04;11.27;;;2.87;;
71637;SDS011;59485;43.542;-5.676;2023-08-31T01:57:33;13.02;;;3.83;;
71637;SDS011;59485;43.542;-5.676;2023-08-31T01:59:59;11.52;;;4.18;;
71637;SDS011;59485;43.542;-5.676;2023-08-31T02:02:25;9.83;;;3.20;;
71637;SDS011;59485;43.542;-5.676;2023-08-31T02:04:50;9.02;;;3.10;;
71637;SDS011;59485;43.542;-5.676;2023-08-31T02:07:17;8.90;;;3.03;;
71637;SDS011;59485;43.542;-5.676;2023-08-31T02:09:42;10.82;;;3.10;;
71637;SDS011;59485;43.542;-5.676;2023-08-31T02:12:08;11.07;;;3.47;;
71637;SDS011;59485;43.542;-5.676;2023-08-31T02:14:36;12.25;;;3.50;;
71637;SDS011;59485;43.542;-5.676;2023-08-31T02:17:03;12.13;;;2.93;;
71637;SDS011;59485;43.542;-5.676;2023-08-31T02:19:28;9.82;;;3.28;;
71637;SDS011;59485;43.542;-5.676;2023-08-31T02:21:54;16.17;;;3.00;;
71637;SDS011;59485;43.542;-5.676;2023-08-31T02:24:19;11.87;;;3.97;;
71637;SDS011;59485;43.542;-5.676;2023-08-31T02:26:45;15.02;;;3.25;;
71637;SDS011;59485;43.542;-5.676;2023-08-31T02:29:10;10.13;;;3.40;;
71637;SDS011;59485;43.542;-5.676;2023-08-31T02:31:36;14.48;;;3.30;;
71637;SDS011;59485;43.542;-5.676;2023-08-31T02:34:03;11.17;;;3.60;;
71637;SDS011;59485;43.542;-5.676;2023-08-31T02:36:29;11.63;;;3.70;;
71637;SDS011;59485;43.542;-5.676;2023-08-31T02:38:55;11.60;;;3.37;;
71637;SDS011;59485;43.542;-5.676;2023-08-31T02:41:21;15.73;;;3.28;;
71637;SDS011;59485;43.542;-5.676;2023-08-31T02:43:50;12.10;;;3.60;;
71637;SDS011;59485;43.542;-5.676;2023-08-31T02:46:16;11.05;;;3.53;;
71637;SDS011;59485;43.542;-5.676;2023-08-31T02:48:42;13.60;;;3.97;;
71637;SDS011;59485;43.542;-5.676;2023-08-31T02:51:09;11.63;;;3.58;;
71637;SDS011;59485;43.542;-5.676;2023-08-31T02:53:34;9.70;;;3.80;;
71637;SDS011;59485;43.542;-5.676;2023-08-31T02:56:03;9.82;;;3.22;;
71637;SDS011;59485;43.542;-5.676;2023-08-31T02:58:29;13.88;;;3.55;;
71637;SDS011;59485;43.542;-5.676;2023-08-31T03:00:54;8.97;;;3.27;;
71637;SDS011;59485;43.542;-5.676;2023-08-31T03:03:20;10.27;;;3.15;;
71637;SDS011;59485;43.542;-5.676;2023-08-31T03:05:46;10.00;;;3.35;;
71637;SDS011;59485;43.542;-5.676;2023-08-31T03:08:12;10.33;;;3.73;;
71637;SDS011;59485;43.542;-5.676;2023-08-31T03:10:38;12.30;;;3.53;;
71637;SDS011;59485;43.542;-5.676;2023-08-31T03:13:04;14.07;;;4.30;;
71637;SDS011;59485;43.542;-5.676;2023-08-31T03:15:32;10.77;;;3.00;;
71637;SDS011;59485;43.542;-5.676;2023-08-31T03:17:57;11.65;;;3.55;;
71637;SDS011;59485;43.542;-5.676;2023-08-31T03:20:23;9.43;;;4.00;;
71637;SDS011;59485;43.542;-5.676;2023-08-31T03:22:49;12.30;;;4.07;;
71637;SDS011;59485;43.542;-5.676;2023-08-31T03:25:14;14.30;;;4.40;;
71637;SDS011;59485;43.542;-5.676;2023-08-31T03:27:40;12.13;;;3.70;;
71637;SDS011;59485;43.542;-5.676;2023-08-31T03:30:06;11.98;;;3.80;;
71637;SDS011;59485;43.542;-5.676;2023-08-31T03:32:32;13.20;;;3.90;;
71637;SDS011;59485;43.542;-5.676;2023-08-31T03:34:58;12.38;;;3.75;;
71637;SDS011;59485;43.542;-5.676;2023-08-31T03:37:23;12.30;;;3.87;;
71637;SDS011;59485;43.542;-5.676;2023-08-31T03:39:49;14.33;;;5.17;;
71637;SDS011;59485;43.542;-5.676;2023-08-31T03:42:14;14.57;;;5.10;;
71637;SDS011;59485;43.542;-5.676;2023-08-31T03:44:40;14.40;;;5.90;;
71637;SDS011;59485;43.542;-5.676;2023-08-31T03:47:06;11.77;;;5.03;;
71637;SDS011;59485;43.542;-5.676;2023-08-31T03:49:32;15.67;;;4.70;;
71637;SDS011;59485;43.542;-5.676;2023-08-31T03:51:58;14.98;;;3.90;;
71637;SDS011;59485;43.542;-5.676;2023-08-31T03:54:24;17.90;;;4.95;;
71637;SDS011;59485;43.542;-5.676;2023-08-31T03:56:50;10.93;;;4.47;;
71637;SDS011;59485;43.542;-5.676;2023-08-31T03:59:15;10.00;;;4.65;;
71637;SDS011;59485;43.542;-5.676;2023-08-31T04:01:41;12.07;;;4.40;;
71637;SDS011;59485;43.542;-5.676;2023-08-31T04:04:07;15.88;;;4.90;;
71637;SDS011;59485;43.542;-5.676;2023-08-31T04:06:33;11.48;;;5.80;;
71637;SDS011;59485;43.542;-5.676;2023-08-31T04:08:59;13.07;;;4.50;;
71637;SDS011;59485;43.542;-5.676;2023-08-31T04:11:24;16.42;;;5.85;;
71637;SDS011;59485;43.542;-5.676;2023-08-31T04:13:51;11.97;;;4.97;;
71637;SDS011;59485;43.542;-5.676;2023-08-31T04:16:17;12.55;;;4.55;;
71637;SDS011;59485;43.542;-5.676;2023-08-31T04:18:42;16.80;;;5.60;;
71637;SDS011;59485;43.542;-5.676;2023-08-31T04:21:08;17.52;;;6.20;;
71637;SDS011;59485;43.542;-5.676;2023-08-31T04:23:34;11.90;;;5.63;;
71637;SDS011;59485;43.542;-5.676;2023-08-31T04:25:59;12.63;;;4.75;;
71637;SDS011;59485;43.542;-5.676;2023-08-31T04:28:25;15.70;;;5.13;;
71637;SDS011;59485;43.542;-5.676;2023-08-31T04:30:53;14.77;;;5.50;;
71637;SDS011;59485;43.542;-5.676;2023-08-31T04:33:18;15.17;;;5.00;;
71637;SDS011;59485;43.542;-5.676;2023-08-31T04:35:44;15.13;;;4.20;;
71637;SDS011;59485;43.542;-5.676;2023-08-31T04:38:10;20.50;;;5.07;;
71637;SDS011;59485;43.542;-5.676;2023-08-31T04:40:36;13.25;;;4.55;;
71637;SDS011;59485;43.542;-5.676;2023-08-31T04:43:02;10.87;;;4.23;;
71637;SDS011;59485;43.542;-5.676;2023-08-31T04:45:28;15.13;;;4.80;;
71637;SDS011;59485;43.542;-5.676;2023-08-31T04:47:54;12.00;;;4.40;;
71637;SDS011;59485;43.542;-5.676;2023-08-31T04:50:19;12.63;;;6.47;;
71637;SDS011;59485;43.542;-5.676;2023-08-31T04:52:45;11.23;;;5.57;;
71637;SDS011;59485;43.542;-5.676;2023-08-31T04:55:12;14.85;;;4.97;;
71637;SDS011;59485;43.542;-5.676;2023-08-31T04:57:38;12.27;;;5.32;;
71637;SDS011;59485;43.542;-5.676;2023-08-31T05:00:04;12.75;;;5.25;;
71637;SDS011;59485;43.542;-5.676;2023-08-31T05:02:34;15.60;;;5.63;;
71637;SDS011;59485;43.542;-5.676;2023-08-31T05:04:59;11.65;;;5.18;;
71637;SDS011;59485;43.542;-5.676;2023-08-31T05:07:25;14.93;;;4.93;;
71637;SDS011;59485;43.542;-5.676;2023-08-31T05:09:50;12.60;;;5.10;;
71637;SDS011;59485;43.542;-5.676;2023-08-31T05:12:16;11.60;;;4.70;;
71637;SDS011;59485;43.542;-5.676;2023-08-31T05:14:42;14.55;;;4.50;;
71637;SDS011;59485;43.542;-5.676;2023-08-31T05:17:11;15.60;;;4.47;;
71637;SDS011;59485;43.542;-5.676;2023-08-31T05:19:37;14.07;;;3.67;;
71637;SDS011;59485;43.542;-5.676;2023-08-31T05:22:03;12.87;;;3.80;;
71637;SDS011;59485;43.542;-5.676;2023-08-31T05:24:29;10.55;;;3.75;;
71637;SDS011;59485;43.542;-5.676;2023-08-31T05:26:55;15.38;;;4.53;;
71637;SDS011;59485;43.542;-5.676;2023-08-31T05:29:20;11.20;;;3.90;;
71637;SDS011;59485;43.542;-5.676;2023-08-31T05:31:46;10.63;;;5.10;;
71637;SDS011;59485;43.542;-5.676;2023-08-31T05:34:15;14.67;;;5.00;;
71637;SDS011;59485;43.542;-5.676;2023-08-31T05:36:42;17.60;;;5.13;;
71637;SDS011;59485;43.542;-5.676;2023-08-31T05:39:08;16.05;;;7.00;;
71637;SDS011;59485;43.542;-5.676;2023-08-31T05:41:34;21.95;;;7.25;;
71637;SDS011;59485;43.542;-5.676;2023-08-31T05:44:00;20.97;;;6.87;;
71637;SDS011;59485;43.542;-5.676;2023-08-31T05:46:25;14.30;;;5.47;;
71637;SDS011;59485;43.542;-5.676;2023-08-31T05:48:52;15.02;;;5.95;;
71637;SDS011;59485;43.542;-5.676;2023-08-31T05:51:17;14.03;;;6.73;;
71637;SDS011;59485;43.542;-5.676;2023-08-31T05:53:43;15.45;;;9.10;;
71637;SDS011;59485;43.542;-5.676;2023-08-31T05:56:08;21.70;;;10.17;;
71637;SDS011;59485;43.542;-5.676;2023-08-31T05:58:34;25.97;;;12.67;;
71637;SDS011;59485;43.542;-5.676;2023-08-31T06:01:01;20.90;;;9.27;;
71637;SDS011;59485;43.542;-5.676;2023-08-31T06:03:27;18.65;;;8.43;;
71637;SDS011;59485;43.542;-5.676;2023-08-31T06:05:54;14.18;;;6.93;;
71637;SDS011;59485;43.542;-5.676;2023-08-31T06:08:20;13.43;;;6.10;;
71637;SDS011;59485;43.542;-5.676;2023-08-31T06:10:46;16.33;;;5.20;;
71637;SDS011;59485;43.542;-5.676;2023-08-31T06:13:11;14.50;;;4.70;;
71637;SDS011;59485;43.542;-5.676;2023-08-31T06:15:37;15.30;;;4.32;;
71637;SDS011;59485;43.542;-5.676;2023-08-31T06:18:04;10.57;;;5.45;;
71637;SDS011;59485;43.542;-5.676;2023-08-31T06:20:32;13.60;;;4.13;;
71637;SDS011;59485;43.542;-5.676;2023-08-31T06:23:01;16.52;;;4.53;;
71637;SDS011;59485;43.542;-5.676;2023-08-31T06:25:27;14.98;;;4.80;;
71637;SDS011;59485;43.542;-5.676;2023-08-31T06:27:53;14.10;;;5.37;;
71637;SDS011;59485;43.542;-5.676;2023-08-31T06:30:18;13.60;;;4.83;;
71637;SDS011;59485;43.542;-5.676;2023-08-31T06:32:44;16.30;;;4.75;;
71637;SDS011;59485;43.542;-5.676;2023-08-31T06:35:11;8.43;;;4.35;;
71637;SDS011;59485;43.542;-5.676;2023-08-31T06:37:38;8.50;;;3.47;;
71637;SDS011;59485;43.542;-5.676;2023-08-31T06:42:54;13.77;;;4.50;;
71637;SDS011;59485;43.542;-5.676;2023-08-31T06:45:19;14.37;;;4.60;;
71637;SDS011;59485;43.542;-5.676;2023-08-31T06:47:45;11.43;;;4.78;;
71637;SDS011;59485;43.542;-5.676;2023-08-31T06:50:10;12.23;;;4.30;;
71637;SDS011;59485;43.542;-5.676;2023-08-31T06:52:36;15.03;;;4.20;;
71637;SDS011;59485;43.542;-5.676;2023-08-31T06:55:01;11.02;;;3.90;;
71637;SDS011;59485;43.542;-5.676;2023-08-31T06:57:28;10.32;;;3.75;;
71637;SDS011;59485;43.542;-5.676;2023-08-31T06:59:53;7.17;;;3.47;;
71637;SDS011;59485;43.542;-5.676;2023-08-31T07:02:19;9.77;;;3.83;;
71637;SDS011;59485;43.542;-5.676;2023-08-31T07:04:47;11.13;;;3.92;;
71637;SDS011;59485;43.542;-5.676;2023-08-31T07:07:13;13.77;;;4.00;;
71637;SDS011;59485;43.542;-5.676;2023-08-31T07:09:39;13.13;;;3.80;;
71637;SDS011;59485;43.542;-5.676;2023-08-31T07:12:11;13.63;;;3.83;;
71637;SDS011;59485;43.542;-5.676;2023-08-31T07:14:37;11.98;;;2.70;;
71637;SDS011;59485;43.542;-5.676;2023-08-31T07:17:03;13.27;;;4.20;;
71637;SDS011;59485;43.542;-5.676;2023-08-31T07:19:35;14.17;;;3.13;;
71637;SDS011;59485;43.542;-5.676;2023-08-31T07:22:01;13.77;;;4.03;;
71637;SDS011;59485;43.542;-5.676;2023-08-31T07:24:26;8.47;;;3.27;;
71637;SDS011;59485;43.542;-5.676;2023-08-31T07:26:52;8.33;;;3.17;;
71637;SDS011;59485;43.542;-5.676;2023-08-31T07:29:17;12.87;;;4.40;;
71637;SDS011;59485;43.542;-5.676;2023-08-31T07:31:43;8.17;;;3.87;;
71637;SDS011;59485;43.542;-5.676;2023-08-31T07:34:08;12.60;;;4.18;;
71637;SDS011;59485;43.542;-5.676;2023-08-31T07:36:34;13.80;;;4.80;;
71637;SDS011;59485;43.542;-5.676;2023-08-31T07:38:59;11.77;;;5.23;;
71637;SDS011;59485;43.542;-5.676;2023-08-31T07:41:25;10.10;;;4.88;;
71637;SDS011;59485;43.542;-5.676;2023-08-31T07:43:50;15.47;;;5.50;;
71637;SDS011;59485;43.542;-5.676;2023-08-31T07:46:17;14.82;;;5.50;;
71637;SDS011;59485;43.542;-5.676;2023-08-31T07:48:43;6.40;;;3.47;;
71637;SDS011;59485;43.542;-5.676;2023-08-31T07:51:08;6.22;;;2.95;;
71637;SDS011;59485;43.542;-5.676;2023-08-31T07:53:34;7.07;;;2.40;;
71637;SDS011;59485;43.542;-5.676;2023-08-31T07:55:59;6.97;;;2.10;;
71637;SDS011;59485;43.542;-5.676;2023-08-31T07:58:25;12.00;;;2.00;;
71637;SDS011;59485;43.542;-5.676;2023-08-31T08:00:57;9.57;;;2.40;;
71637;SDS011;59485;43.542;-5.676;2023-08-31T08:03:23;4.97;;;1.55;;
71637;SDS011;59485;43.542;-5.676;2023-08-31T08:05:49;5.83;;;2.27;;
71637;SDS011;59485;43.542;-5.676;2023-08-31T08:08:14;9.65;;;2.45;;
71637;SDS011;59485;43.542;-5.676;2023-08-31T08:10:40;6.53;;;2.08;;
71637;SDS011;59485;43.542;-5.676;2023-08-31T08:13:08;9.10;;;1.90;;
71637;SDS011;59485;43.542;-5.676;2023-08-31T08:15:33;5.40;;;2.20;;
71637;SDS011;59485;43.542;-5.676;2023-08-31T08:17:59;7.47;;;1.42;;
71637;SDS011;59485;43.542;-5.676;2023-08-31T08:20:25;11.07;;;1.77;;
71637;SDS011;59485;43.542;-5.676;2023-08-31T08:22:50;6.97;;;1.97;;
71637;SDS011;59485;43.542;-5.676;2023-08-31T08:25:20;5.72;;;1.70;;
71637;SDS011;59485;43.542;-5.676;2023-08-31T08:27:45;6.10;;;1.48;;
71637;SDS011;59485;43.542;-5.676;2023-08-31T08:30:12;6.85;;;1.60;;
71637;SDS011;59485;43.542;-5.676;2023-08-31T08:32:38;8.32;;;1.73;;
71637;SDS011;59485;43.542;-5.676;2023-08-31T08:35:03;6.43;;;1.67;;
71637;SDS011;59485;43.542;-5.676;2023-08-31T08:37:29;8.10;;;1.75;;
71637;SDS011;59485;43.542;-5.676;2023-08-31T08:39:57;8.20;;;2.17;;
71637;SDS011;59485;43.542;-5.676;2023-08-31T08:42:23;8.50;;;1.90;;
71637;SDS011;59485;43.542;-5.676;2023-08-31T08:44:54;7.38;;;2.03;;
71637;SDS011;59485;43.542;-5.676;2023-08-31T08:47:22;9.87;;;2.47;;
71637;SDS011;59485;43.542;-5.676;2023-08-31T08:49:47;7.88;;;3.10;;
71637;SDS011;59485;43.542;-5.676;2023-08-31T08:52:13;8.77;;;3.03;;
71637;SDS011;59485;43.542;-5.676;2023-08-31T08:54:40;8.38;;;2.13;;
71637;SDS011;59485;43.542;-5.676;2023-08-31T08:57:06;7.50;;;2.05;;
71637;SDS011;59485;43.542;-5.676;2023-08-31T08:59:31;10.20;;;3.50;;
71637;SDS011;59485;43.542;-5.676;2023-08-31T09:01:58;8.35;;;3.92;;
71637;SDS011;59485;43.542;-5.676;2023-08-31T09:04:23;7.97;;;3.08;;
71637;SDS011;59485;43.542;-5.676;2023-08-31T09:06:52;8.87;;;2.90;;
71637;SDS011;59485;43.542;-5.676;2023-08-31T09:09:35;13.60;;;3.42;;
71637;SDS011;59485;43.542;-5.676;2023-08-31T09:12:14;7.50;;;2.22;;
71637;SDS011;59485;43.542;-5.676;2023-08-31T09:14:39;11.37;;;2.63;;
71637;SDS011;59485;43.542;-5.676;2023-08-31T09:17:19;7.60;;;1.88;;
71637;SDS011;59485;43.542;-5.676;2023-08-31T09:22:16;7.63;;;2.70;;
71637;SDS011;59485;43.542;-5.676;2023-08-31T09:24:47;6.68;;;2.30;;
71637;SDS011;59485;43.542;-5.676;2023-08-31T09:27:13;6.93;;;2.58;;
71637;SDS011;59485;43.542;-5.676;2023-08-31T09:29:39;8.87;;;2.70;;
71637;SDS011;59485;43.542;-5.676;2023-08-31T09:32:15;10.23;;;2.45;;
71637;SDS011;59485;43.542;-5.676;2023-08-31T09:34:42;10.95;;;2.55;;
71637;SDS011;59485;43.542;-5.676;2023-08-31T09:37:08;11.93;;;2.35;;
71637;SDS011;59485;43.542;-5.676;2023-08-31T09:39:37;9.07;;;2.03;;
71637;SDS011;59485;43.542;-5.676;2023-08-31T09:42:04;11.07;;;2.20;;
71637;SDS011;59485;43.542;-5.676;2023-08-31T09:44:30;8.15;;;2.35;;
71637;SDS011;59485;43.542;-5.676;2023-08-31T09:49:27;7.07;;;1.55;;
71637;SDS011;59485;43.542;-5.676;2023-08-31T09:51:54;4.18;;;1.35;;
71637;SDS011;59485;43.542;-5.676;2023-08-31T09:54:26;7.78;;;1.05;;
71637;SDS011;59485;43.542;-5.676;2023-08-31T09:56:56;4.70;;;1.35;;
71637;SDS011;59485;43.542;-5.676;2023-08-31T09:59:28;7.80;;;1.43;;
71637;SDS011;59485;43.542;-5.676;2023-08-31T10:01:54;5.43;;;1.25;;
71637;SDS011;59485;43.542;-5.676;2023-08-31T10:04:21;4.85;;;1.33;;
71637;SDS011;59485;43.542;-5.676;2023-08-31T10:06:48;9.18;;;1.15;;
71637;SDS011;59485;43.542;-5.676;2023-08-31T10:09:14;3.43;;;0.80;;
71637;SDS011;59485;43.542;-5.676;2023-08-31T10:11:55;4.15;;;0.82;;
71637;SDS011;59485;43.542;-5.676;2023-08-31T10:14:22;8.30;;;0.77;;
71637;SDS011;59485;43.542;-5.676;2023-08-31T10:16:51;5.30;;;0.82;;
71637;SDS011;59485;43.542;-5.676;2023-08-31T10:19:19;4.68;;;1.08;;
71637;SDS011;59485;43.542;-5.676;2023-08-31T10:21:45;6.50;;;1.00;;
71637;SDS011;59485;43.542;-5.676;2023-08-31T10:24:10;5.22;;;0.85;;
71637;SDS011;59485;43.542;-5.676;2023-08-31T10:26:36;5.73;;;1.50;;
71637;SDS011;59485;43.542;-5.676;2023-08-31T10:29:01;5.07;;;1.45;;
71637;SDS011;59485;43.542;-5.676;2023-08-31T10:31:37;4.97;;;1.10;;
71637;SDS011;59485;43.542;-5.676;2023-08-31T10:45:00;6.43;;;1.40;;
71637;SDS011;59485;43.542;-5.676;2023-08-31T10:47:40;5.60;;;1.63;;
71637;SDS011;59485;43.542;-5.676;2023-08-31T10:52:36;4.80;;;1.33;;
71637;SDS011;59485;43.542;-5.676;2023-08-31T11:05:59;8.68;;;1.40;;
71637;SDS011;59485;43.542;-5.676;2023-08-31T11:08:24;7.30;;;1.50;;
71637;SDS011;59485;43.542;-5.676;2023-08-31T11:13:39;5.97;;;1.65;;
71637;SDS011;59485;43.542;-5.676;2023-08-31T11:18:41;4.50;;;1.08;;
71637;SDS011;59485;43.542;-5.676;2023-08-31T11:21:19;6.28;;;1.25;;
71637;SDS011;59485;43.542;-5.676;2023-08-31T11:23:46;7.97;;;1.30;;
71637;SDS011;59485;43.542;-5.676;2023-08-31T11:26:57;4.30;;;1.20;;
71637;SDS011;59485;43.542;-5.676;2023-08-31T11:29:22;7.35;;;1.73;;
71637;SDS011;59485;43.542;-5.676;2023-08-31T11:31:48;5.85;;;1.48;;
71637;SDS011;59485;43.542;-5.676;2023-08-31T11:34:17;3.50;;;1.07;;
71637;SDS011;59485;43.542;-5.676;2023-08-31T11:36:44;5.10;;;1.08;;
71637;SDS011;59485;43.542;-5.676;2023-08-31T11:41:46;5.83;;;1.40;;
71637;SDS011;59485;43.542;-5.676;2023-08-31T11:44:13;3.85;;;0.70;;
71637;SDS011;59485;43.542;-5.676;2023-08-31T11:46:43;5.38;;;1.73;;
71637;SDS011;59485;43.542;-5.676;2023-08-31T11:49:11;3.97;;;0.75;;
71637;SDS011;59485;43.542;-5.676;2023-08-31T11:51:37;4.77;;;1.40;;
71637;SDS011;59485;43.542;-5.676;2023-08-31T11:54:05;6.03;;;1.02;;
71637;SDS011;59485;43.542;-5.676;2023-08-31T11:56:41;6.22;;;1.33;;
71637;SDS011;59485;43.542;-5.676;2023-08-31T12:01:39;6.18;;;1.48;;
71637;SDS011;59485;43.542;-5.676;2023-08-31T12:07:27;5.68;;;1.17;;
71637;SDS011;59485;43.542;-5.676;2023-08-31T12:09:53;6.35;;;0.90;;
71637;SDS011;59485;43.542;-5.676;2023-08-31T12:12:22;9.70;;;1.90;;
71637;SDS011;59485;43.542;-5.676;2023-08-31T12:14:52;5.97;;;1.42;;
71637;SDS011;59485;43.542;-5.676;2023-08-31T12:17:18;6.70;;;1.38;;
71637;SDS011;59485;43.542;-5.676;2023-08-31T12:19:44;4.22;;;1.30;;
71637;SDS011;59485;43.542;-5.676;2023-08-31T12:22:09;4.30;;;0.60;;
71637;SDS011;59485;43.542;-5.676;2023-08-31T12:24:40;4.60;;;1.02;;
71637;SDS011;59485;43.542;-5.676;2023-08-31T12:27:07;4.75;;;1.27;;
71637;SDS011;59485;43.542;-5.676;2023-08-31T12:29:33;7.40;;;1.03;;
71637;SDS011;59485;43.542;-5.676;2023-08-31T12:32:08;4.35;;;1.17;;
71637;SDS011;59485;43.542;-5.676;2023-08-31T12:34:34;3.58;;;0.85;;
71637;SDS011;59485;43.542;-5.676;2023-08-31T12:37:19;5.55;;;1.02;;
71637;SDS011;59485;43.542;-5.676;2023-08-31T12:39:53;2.90;;;1.07;;
71637;SDS011;59485;43.542;-5.676;2023-08-31T12:45:27;5.95;;;0.93;;
71637;SDS011;59485;43.542;-5.676;2023-08-31T12:50:59;6.95;;;1.02;;
71637;SDS011;59485;43.542;-5.676;2023-08-31T12:53:31;4.60;;;0.73;;
71637;SDS011;59485;43.542;-5.676;2023-08-31T12:56:35;5.50;;;1.00;;
71637;SDS011;59485;43.542;-5.676;2023-08-31T12:59:03;5.65;;;0.90;;
71637;SDS011;59485;43.542;-5.676;2023-08-31T13:01:30;2.93;;;0.70;;
71637;SDS011;59485;43.542;-5.676;2023-08-31T13:03:58;4.97;;;1.23;;
71637;SDS011;59485;43.542;-5.676;2023-08-31T13:06:24;3.40;;;0.73;;
71637;SDS011;59485;43.542;-5.676;2023-08-31T13:08:50;5.22;;;1.50;;
71637;SDS011;59485;43.542;-5.676;2023-08-31T13:11:16;4.30;;;1.40;;
71637;SDS011;59485;43.542;-5.676;2023-08-31T13:19:02;3.87;;;0.40;;
71637;SDS011;59485;43.542;-5.676;2023-08-31T13:21:27;2.53;;;0.70;;
71637;SDS011;59485;43.542;-5.676;2023-08-31T13:23:53;4.25;;;1.20;;
71637;SDS011;59485;43.542;-5.676;2023-08-31T13:26:19;6.60;;;1.40;;
71637;SDS011;59485;43.542;-5.676;2023-08-31T13:28:44;3.88;;;1.25;;
71637;SDS011;59485;43.542;-5.676;2023-08-31T13:31:10;5.50;;;0.63;;
71637;SDS011;59485;43.542;-5.676;2023-08-31T13:33:39;4.63;;;0.90;;
71637;SDS011;59485;43.542;-5.676;2023-08-31T13:36:16;4.00;;;1.00;;
71637;SDS011;59485;43.542;-5.676;2023-08-31T13:38:42;5.90;;;1.00;;
71637;SDS011;59485;43.542;-5.676;2023-08-31T13:41:08;4.00;;;1.08;;
71637;SDS011;59485;43.542;-5.676;2023-08-31T13:43:34;4.97;;;0.70;;
71637;SDS011;59485;43.542;-5.676;2023-08-31T13:46:09;4.32;;;1.40;;
71637;SDS011;59485;43.542;-5.676;2023-08-31T13:48:37;4.63;;;0.95;;
71637;SDS011;59485;43.542;-5.676;2023-08-31T13:51:27;3.30;;;0.50;;
71637;SDS011;59485;43.542;-5.676;2023-08-31T13:56:41;4.95;;;0.80;;
71637;SDS011;59485;43.542;-5.676;2023-08-31T13:59:08;5.35;;;0.70;;
71637;SDS011;59485;43.542;-5.676;2023-08-31T14:01:45;4.85;;;1.15;;
71637;SDS011;59485;43.542;-5.676;2023-08-31T14:04:14;2.97;;;0.73;;
71637;SDS011;59485;43.542;-5.676;2023-08-31T14:06:46;3.78;;;0.82;;
71637;SDS011;59485;43.542;-5.676;2023-08-31T14:11:54;4.43;;;0.50;;
71637;SDS011;59485;43.542;-5.676;2023-08-31T14:14:22;3.05;;;0.75;;
71637;SDS011;59485;43.542;-5.676;2023-08-31T14:16:51;2.58;;;0.30;;
71637;SDS011;59485;43.542;-5.676;2023-08-31T14:19:17;5.38;;;0.70;;
71637;SDS011;59485;43.542;-5.676;2023-08-31T14:21:45;3.72;;;0.95;;
71637;SDS011;59485;43.542;-5.676;2023-08-31T14:24:29;6.03;;;0.83;;
71637;SDS011;59485;43.542;-5.676;2023-08-31T14:27:09;3.70;;;1.02;;
71637;SDS011;59485;43.542;-5.676;2023-08-31T14:32:01;2.83;;;0.35;;
71637;SDS011;59485;43.542;-5.676;2023-08-31T14:34:48;5.78;;;0.95;;
71637;SDS011;59485;43.542;-5.676;2023-08-31T14:37:22;4.17;;;0.90;;
71637;SDS011;59485;43.542;-5.676;2023-08-31T14:39:57;4.82;;;0.88;;
71637;SDS011;59485;43.542;-5.676;2023-08-31T14:48:04;3.90;;;0.80;;
71637;SDS011;59485;43.542;-5.676;2023-08-31T14:50:30;3.33;;;0.93;;
71637;SDS011;59485;43.542;-5.676;2023-08-31T14:56:06;4.45;;;0.50;;
71637;SDS011;59485;43.542;-5.676;2023-08-31T14:58:33;4.60;;;0.80;;
71637;SDS011;59485;43.542;-5.676;2023-08-31T15:03:34;3.25;;;0.35;;
71637;SDS011;59485;43.542;-5.676;2023-08-31T15:06:04;4.38;;;0.65;;
71637;SDS011;59485;43.542;-5.676;2023-08-31T15:11:19;5.25;;;0.98;;
71637;SDS011;59485;43.542;-5.676;2023-08-31T15:13:57;4.22;;;0.93;;
71637;SDS011;59485;43.542;-5.676;2023-08-31T15:16:24;2.60;;;0.53;;
71637;SDS011;59485;43.542;-5.676;2023-08-31T15:18:56;3.35;;;0.82;;
71637;SDS011;59485;43.542;-5.676;2023-08-31T15:24:27;6.35;;;0.77;;
71637;SDS011;59485;43.542;-5.676;2023-08-31T15:26:52;4.07;;;1.13;;
71637;SDS011;59485;43.542;-5.676;2023-08-31T15:29:18;3.63;;;0.93;;
71637;SDS011;59485;43.542;-5.676;2023-08-31T15:31:45;3.17;;;0.50;;
71637;SDS011;59485;43.542;-5.676;2023-08-31T15:34:17;6.05;;;0.55;;
71637;SDS011;59485;43.542;-5.676;2023-08-31T15:36:45;4.10;;;0.77;;
71637;SDS011;59485;43.542;-5.676;2023-08-31T15:39:11;5.30;;;1.00;;
71637;SDS011;59485;43.542;-5.676;2023-08-31T15:44:26;8.60;;;0.70;;
71637;SDS011;59485;43.542;-5.676;2023-08-31T15:47:07;5.32;;;0.80;;
71637;SDS011;59485;43.542;-5.676;2023-08-31T15:49:37;3.33;;;0.85;;
71637;SDS011;59485;43.542;-5.676;2023-08-31T15:52:03;5.43;;;0.73;;
71637;SDS011;59485;43.542;-5.676;2023-08-31T15:54:31;4.32;;;0.57;;
71637;SDS011;59485;43.542;-5.676;2023-08-31T15:56:56;5.23;;;0.70;;
71637;SDS011;59485;43.542;-5.676;2023-08-31T15:59:23;6.40;;;1.00;;
71637;SDS011;59485;43.542;-5.676;2023-08-31T16:01:51;3.67;;;0.95;;
71637;SDS011;59485;43.542;-5.676;2023-08-31T16:04:17;4.53;;;0.80;;
71637;SDS011;59485;43.542;-5.676;2023-08-31T16:09:17;7.70;;;1.57;;